sensor_id;sensor_type;location;lat;lon;timestamp;temperature;humidity
64634;DHT22;51043;52.406;9.690;2022-11-20T00:01:11;-5.00;99.90
64634;DHT22;51043;52.406;9.690;2022-11-20T00:03:39;-5.00;99.90
64634;DHT22;51043;52.406;9.690;2022-11-20T00:06:09;-5.00;99.90
64634;DHT22;51043;52.406;9.690;2022-11-20T00:08:36;-5.10;99.90
64634;DHT22;51043;52.406;9.690;2022-11-20T00:11:08;-5.10;99.90
64634;DHT22;51043;52.406;9.690;2022-11-20T00:13:38;-5.10;99.90
64634;DHT22;51043;52.406;9.690;2022-11-20T00:16:07;-5.20;99.90
64634;DHT22;51043;52.406;9.690;2022-11-20T00:18:35;-5.20;99.90
64634;DHT22;51043;52.406;9.690;2022-11-20T00:21:07;-5.30;99.90
64634;DHT22;51043;52.406;9.690;2022-11-20T00:23:36;-5.30;99.90
64634;DHT22;51043;52.406;9.690;2022-11-20T00:26:04;-5.30;99.90
64634;DHT22;51043;52.406;9.690;2022-11-20T00:28:31;-5.30;99.90
64634;DHT22;51043;52.406;9.690;2022-11-20T00:31:06;-5.30;99.90
64634;DHT22;51043;52.406;9.690;2022-11-20T00:33:34;-5.30;99.90
64634;DHT22;51043;52.406;9.690;2022-11-20T00:36:02;-5.30;99.90
64634;DHT22;51043;52.406;9.690;2022-11-20T00:38:31;-5.30;99.90
64634;DHT22;51043;52.406;9.690;2022-11-20T00:41:02;-5.30;99.90
64634;DHT22;51043;52.406;9.690;2022-11-20T00:43:30;-5.30;99.90
64634;DHT22;51043;52.406;9.690;2022-11-20T00:48:27;-5.30;99.90
64634;DHT22;51043;52.406;9.690;2022-11-20T00:50:54;-5.40;99.90
64634;DHT22;51043;52.406;9.690;2022-11-20T00:53:22;-5.40;99.90
64634;DHT22;51043;52.406;9.690;2022-11-20T00:55:54;-5.30;99.90
64634;DHT22;51043;52.406;9.690;2022-11-20T00:58:22;-5.30;99.90
64634;DHT22;51043;52.406;9.690;2022-11-20T01:00:49;-5.30;99.90
64634;DHT22;51043;52.406;9.690;2022-11-20T01:03:17;-5.30;99.90
64634;DHT22;51043;52.406;9.690;2022-11-20T01:05:46;-5.30;99.90
64634;DHT22;51043;52.406;9.690;2022-11-20T01:08:12;-5.30;99.90
64634;DHT22;51043;52.406;9.690;2022-11-20T01:10:39;-5.30;99.90
64634;DHT22;51043;52.406;9.690;2022-11-20T01:13:06;-5.30;99.90
64634;DHT22;51043;52.406;9.690;2022-11-20T01:15:52;-5.40;99.90
64634;DHT22;51043;52.406;9.690;2022-11-20T01:18:18;-5.30;99.90
64634;DHT22;51043;52.406;9.690;2022-11-20T01:20:45;-5.20;99.90
64634;DHT22;51043;52.406;9.690;2022-11-20T01:23:12;-5.10;99.90
64634;DHT22;51043;52.406;9.690;2022-11-20T01:25:39;-5.00;99.90
64634;DHT22;51043;52.406;9.690;2022-11-20T01:28:05;-4.80;99.90
64634;DHT22;51043;52.406;9.690;2022-11-20T01:30:32;-4.80;99.90
64634;DHT22;51043;52.406;9.690;2022-11-20T01:32:59;-4.70;99.90
64634;DHT22;51043;52.406;9.690;2022-11-20T01:35:29;-4.70;99.90
64634;DHT22;51043;52.406;9.690;2022-11-20T01:37:56;-4.80;99.90
64634;DHT22;51043;52.406;9.690;2022-11-20T01:40:22;-4.80;99.90
64634;DHT22;51043;52.406;9.690;2022-11-20T01:43:21;-4.70;99.90
64634;DHT22;51043;52.406;9.690;2022-11-20T01:46:06;-4.70;99.90
64634;DHT22;51043;52.406;9.690;2022-11-20T01:48:48;-4.70;99.90
64634;DHT22;51043;52.406;9.690;2022-11-20T01:54:08;-4.60;99.90
64634;DHT22;51043;52.406;9.690;2022-11-20T01:56:38;-4.60;99.90
64634;DHT22;51043;52.406;9.690;2022-11-20T01:59:08;-4.50;99.90
64634;DHT22;51043;52.406;9.690;2022-11-20T02:01:37;-4.50;99.90
64634;DHT22;51043;52.406;9.690;2022-11-20T02:04:07;-4.50;99.90
64634;DHT22;51043;52.406;9.690;2022-11-20T02:06:40;-4.40;99.90
64634;DHT22;51043;52.406;9.690;2022-11-20T02:09:09;-4.40;99.90
64634;DHT22;51043;52.406;9.690;2022-11-20T02:11:35;-4.40;99.90
64634;DHT22;51043;52.406;9.690;2022-11-20T02:14:02;-4.30;99.90
64634;DHT22;51043;52.406;9.690;2022-11-20T02:16:36;-4.30;99.90
64634;DHT22;51043;52.406;9.690;2022-11-20T02:19:07;-4.20;99.90
64634;DHT22;51043;52.406;9.690;2022-11-20T02:21:56;-4.20;99.90
64634;DHT22;51043;52.406;9.690;2022-11-20T02:24:27;-4.10;99.90
64634;DHT22;51043;52.406;9.690;2022-11-20T02:27:15;-4.10;99.90
64634;DHT22;51043;52.406;9.690;2022-11-20T02:29:53;-4.10;99.90
64634;DHT22;51043;52.406;9.690;2022-11-20T02:32:26;-4.00;99.90
64634;DHT22;51043;52.406;9.690;2022-11-20T02:34:54;-4.00;99.90
64634;DHT22;51043;52.406;9.690;2022-11-20T02:37:21;-3.90;99.90
64634;DHT22;51043;52.406;9.690;2022-11-20T02:39:50;-3.90;99.90
64634;DHT22;51043;52.406;9.690;2022-11-20T02:42:18;-3.90;99.90
64634;DHT22;51043;52.406;9.690;2022-11-20T02:44:45;-3.80;99.90
64634;DHT22;51043;52.406;9.690;2022-11-20T02:47:12;-3.90;99.90
64634;DHT22;51043;52.406;9.690;2022-11-20T02:49:38;-3.80;99.90
64634;DHT22;51043;52.406;9.690;2022-11-20T02:52:05;-3.80;99.90
64634;DHT22;51043;52.406;9.690;2022-11-20T02:54:32;-3.80;99.90
64634;DHT22;51043;52.406;9.690;2022-11-20T02:56:59;-3.60;99.90
64634;DHT22;51043;52.406;9.690;2022-11-20T02:59:26;-3.60;99.90
64634;DHT22;51043;52.406;9.690;2022-11-20T03:01:56;-3.60;99.90
64634;DHT22;51043;52.406;9.690;2022-11-20T03:04:23;-3.60;99.90
64634;DHT22;51043;52.406;9.690;2022-11-20T03:06:49;-3.60;99.90
64634;DHT22;51043;52.406;9.690;2022-11-20T03:09:16;-3.60;99.90
64634;DHT22;51043;52.406;9.690;2022-11-20T03:11:43;-3.50;99.90
64634;DHT22;51043;52.406;9.690;2022-11-20T03:14:15;-3.60;99.90
64634;DHT22;51043;52.406;9.690;2022-11-20T03:16:42;-3.40;99.90
64634;DHT22;51043;52.406;9.690;2022-11-20T03:19:11;-3.50;99.90
64634;DHT22;51043;52.406;9.690;2022-11-20T03:21:38;-3.50;99.90
64634;DHT22;51043;52.406;9.690;2022-11-20T03:24:06;-3.50;99.90
64634;DHT22;51043;52.406;9.690;2022-11-20T03:26:33;-3.50;99.90
64634;DHT22;51043;52.406;9.690;2022-11-20T03:29:02;-3.50;99.90
64634;DHT22;51043;52.406;9.690;2022-11-20T03:31:36;-3.50;99.90
64634;DHT22;51043;52.406;9.690;2022-11-20T03:34:04;-3.50;99.90
64634;DHT22;51043;52.406;9.690;2022-11-20T03:36:31;-3.50;99.90
64634;DHT22;51043;52.406;9.690;2022-11-20T03:38:58;-3.50;99.90
64634;DHT22;51043;52.406;9.690;2022-11-20T03:41:28;-3.40;99.90
64634;DHT22;51043;52.406;9.690;2022-11-20T03:44:00;-3.40;99.90
64634;DHT22;51043;52.406;9.690;2022-11-20T03:46:28;-3.40;99.90
64634;DHT22;51043;52.406;9.690;2022-11-20T03:48:56;-3.40;99.90
64634;DHT22;51043;52.406;9.690;2022-11-20T03:51:25;-3.30;99.90
64634;DHT22;51043;52.406;9.690;2022-11-20T03:53:57;-3.30;99.90
64634;DHT22;51043;52.406;9.690;2022-11-20T03:56:32;-3.20;99.90
64634;DHT22;51043;52.406;9.690;2022-11-20T03:58:59;-3.20;99.90
64634;DHT22;51043;52.406;9.690;2022-11-20T04:01:29;-3.10;99.90
64634;DHT22;51043;52.406;9.690;2022-11-20T04:03:56;-3.10;99.90
64634;DHT22;51043;52.406;9.690;2022-11-20T04:06:29;-3.10;99.90
64634;DHT22;51043;52.406;9.690;2022-11-20T04:08:57;-3.10;99.90
64634;DHT22;51043;52.406;9.690;2022-11-20T04:11:30;-3.00;99.90
64634;DHT22;51043;52.406;9.690;2022-11-20T04:14:00;-3.00;99.90
64634;DHT22;51043;52.406;9.690;2022-11-20T04:16:31;-3.00;99.90
64634;DHT22;51043;52.406;9.690;2022-11-20T04:19:01;-3.00;99.90
64634;DHT22;51043;52.406;9.690;2022-11-20T04:21:29;-2.90;99.90
64634;DHT22;51043;52.406;9.690;2022-11-20T04:23:56;-2.90;99.90
64634;DHT22;51043;52.406;9.690;2022-11-20T04:26:25;-2.80;99.90
64634;DHT22;51043;52.406;9.690;2022-11-20T04:28:52;-2.80;99.90
64634;DHT22;51043;52.406;9.690;2022-11-20T04:31:24;-2.80;99.90
64634;DHT22;51043;52.406;9.690;2022-11-20T04:33:53;-2.70;99.90
64634;DHT22;51043;52.406;9.690;2022-11-20T04:36:23;-2.70;99.90
64634;DHT22;51043;52.406;9.690;2022-11-20T04:38:55;-2.60;99.90
64634;DHT22;51043;52.406;9.690;2022-11-20T04:41:24;-2.50;99.90
64634;DHT22;51043;52.406;9.690;2022-11-20T04:43:54;-2.50;99.90
64634;DHT22;51043;52.406;9.690;2022-11-20T04:46:27;-2.50;99.90
64634;DHT22;51043;52.406;9.690;2022-11-20T04:48:54;-2.50;99.90
64634;DHT22;51043;52.406;9.690;2022-11-20T04:51:21;-2.50;99.90
64634;DHT22;51043;52.406;9.690;2022-11-20T04:53:48;-2.50;99.90
64634;DHT22;51043;52.406;9.690;2022-11-20T04:56:15;-2.40;99.90
64634;DHT22;51043;52.406;9.690;2022-11-20T04:58:43;-2.40;99.90
64634;DHT22;51043;52.406;9.690;2022-11-20T05:01:11;-2.40;99.90
64634;DHT22;51043;52.406;9.690;2022-11-20T05:03:40;-2.40;99.90
64634;DHT22;51043;52.406;9.690;2022-11-20T05:06:10;-2.30;99.90
64634;DHT22;51043;52.406;9.690;2022-11-20T05:08:37;-2.30;99.90
64634;DHT22;51043;52.406;9.690;2022-11-20T05:11:11;-2.10;99.90
64634;DHT22;51043;52.406;9.690;2022-11-20T05:13:38;-2.00;99.90
64634;DHT22;51043;52.406;9.690;2022-11-20T05:16:10;-2.00;99.90
64634;DHT22;51043;52.406;9.690;2022-11-20T05:18:38;-2.00;99.90
64634;DHT22;51043;52.406;9.690;2022-11-20T05:21:06;-2.10;99.90
64634;DHT22;51043;52.406;9.690;2022-11-20T05:23:34;-2.10;99.90
64634;DHT22;51043;52.406;9.690;2022-11-20T05:26:03;-2.10;99.90
64634;DHT22;51043;52.406;9.690;2022-11-20T05:28:31;-2.00;99.90
64634;DHT22;51043;52.406;9.690;2022-11-20T05:31:13;-2.00;99.90
64634;DHT22;51043;52.406;9.690;2022-11-20T05:33:42;-2.10;99.90
64634;DHT22;51043;52.406;9.690;2022-11-20T05:36:10;-2.00;99.90
64634;DHT22;51043;52.406;9.690;2022-11-20T05:38:37;-2.00;99.90
64634;DHT22;51043;52.406;9.690;2022-11-20T05:41:11;-2.00;99.90
64634;DHT22;51043;52.406;9.690;2022-11-20T05:43:40;-1.90;99.90
64634;DHT22;51043;52.406;9.690;2022-11-20T05:46:09;-2.00;99.90
64634;DHT22;51043;52.406;9.690;2022-11-20T05:48:36;-2.10;99.90
64634;DHT22;51043;52.406;9.690;2022-11-20T05:51:05;-2.10;99.90
64634;DHT22;51043;52.406;9.690;2022-11-20T05:53:35;-2.10;99.90
64634;DHT22;51043;52.406;9.690;2022-11-20T05:56:07;-2.20;99.90
64634;DHT22;51043;52.406;9.690;2022-11-20T05:58:37;-2.20;99.90
64634;DHT22;51043;52.406;9.690;2022-11-20T06:01:09;-2.20;99.90
64634;DHT22;51043;52.406;9.690;2022-11-20T06:03:37;-2.20;99.90
64634;DHT22;51043;52.406;9.690;2022-11-20T06:06:05;-2.20;99.90
64634;DHT22;51043;52.406;9.690;2022-11-20T06:08:32;-2.20;99.90
64634;DHT22;51043;52.406;9.690;2022-11-20T06:11:06;-2.20;99.90
64634;DHT22;51043;52.406;9.690;2022-11-20T06:13:34;-2.10;99.90
64634;DHT22;51043;52.406;9.690;2022-11-20T06:16:04;-2.00;99.90
64634;DHT22;51043;52.406;9.690;2022-11-20T06:18:31;-1.90;99.90
64634;DHT22;51043;52.406;9.690;2022-11-20T06:21:09;-1.90;99.90
64634;DHT22;51043;52.406;9.690;2022-11-20T06:23:36;-1.90;99.90
64634;DHT22;51043;52.406;9.690;2022-11-20T06:26:06;-1.80;99.90
64634;DHT22;51043;52.406;9.690;2022-11-20T06:28:33;-1.80;99.90
64634;DHT22;51043;52.406;9.690;2022-11-20T06:31:00;-1.80;99.90
64634;DHT22;51043;52.406;9.690;2022-11-20T06:33:28;-1.80;99.90
64634;DHT22;51043;52.406;9.690;2022-11-20T06:35:59;-1.90;99.90
64634;DHT22;51043;52.406;9.690;2022-11-20T06:38:29;-1.90;99.90
64634;DHT22;51043;52.406;9.690;2022-11-20T06:40:56;-1.90;99.90
64634;DHT22;51043;52.406;9.690;2022-11-20T06:43:24;-1.90;99.90
64634;DHT22;51043;52.406;9.690;2022-11-20T06:45:55;-1.90;99.90
64634;DHT22;51043;52.406;9.690;2022-11-20T06:48:25;-1.90;99.90
64634;DHT22;51043;52.406;9.690;2022-11-20T06:50:52;-1.90;99.90
64634;DHT22;51043;52.406;9.690;2022-11-20T06:53:20;-1.80;99.90
64634;DHT22;51043;52.406;9.690;2022-11-20T06:55:48;-1.90;99.90
64634;DHT22;51043;52.406;9.690;2022-11-20T06:58:16;-1.80;99.90
64634;DHT22;51043;52.406;9.690;2022-11-20T07:00:46;-1.80;99.90
64634;DHT22;51043;52.406;9.690;2022-11-20T07:03:13;-1.70;99.90
64634;DHT22;51043;52.406;9.690;2022-11-20T07:05:40;-1.60;99.90
64634;DHT22;51043;52.406;9.690;2022-11-20T07:08:07;-1.50;99.90
64634;DHT22;51043;52.406;9.690;2022-11-20T07:10:35;-1.40;99.90
64634;DHT22;51043;52.406;9.690;2022-11-20T07:13:02;-1.50;99.90
64634;DHT22;51043;52.406;9.690;2022-11-20T07:15:29;-1.50;99.90
64634;DHT22;51043;52.406;9.690;2022-11-20T07:17:59;-1.50;99.90
64634;DHT22;51043;52.406;9.690;2022-11-20T07:20:26;-1.40;99.90
64634;DHT22;51043;52.406;9.690;2022-11-20T07:22:54;-1.40;99.90
64634;DHT22;51043;52.406;9.690;2022-11-20T07:25:22;-1.40;99.90
64634;DHT22;51043;52.406;9.690;2022-11-20T07:27:51;-1.40;99.90
64634;DHT22;51043;52.406;9.690;2022-11-20T07:30:18;-1.50;99.90
64634;DHT22;51043;52.406;9.690;2022-11-20T07:32:51;-1.50;99.90
64634;DHT22;51043;52.406;9.690;2022-11-20T07:35:18;-1.60;99.90
64634;DHT22;51043;52.406;9.690;2022-11-20T07:37:45;-1.50;99.90
64634;DHT22;51043;52.406;9.690;2022-11-20T07:40:13;-1.50;99.90
64634;DHT22;51043;52.406;9.690;2022-11-20T07:42:48;-1.60;99.90
64634;DHT22;51043;52.406;9.690;2022-11-20T07:45:15;-1.60;99.90
64634;DHT22;51043;52.406;9.690;2022-11-20T07:47:42;-1.60;99.90
64634;DHT22;51043;52.406;9.690;2022-11-20T07:50:10;-1.60;99.90
64634;DHT22;51043;52.406;9.690;2022-11-20T07:52:37;-1.60;99.90
64634;DHT22;51043;52.406;9.690;2022-11-20T07:55:04;-1.40;99.90
64634;DHT22;51043;52.406;9.690;2022-11-20T07:57:32;-1.40;99.90
64634;DHT22;51043;52.406;9.690;2022-11-20T07:59:59;-1.30;99.90
64634;DHT22;51043;52.406;9.690;2022-11-20T08:02:26;-1.40;99.90
64634;DHT22;51043;52.406;9.690;2022-11-20T08:04:53;-1.30;99.90
64634;DHT22;51043;52.406;9.690;2022-11-20T08:07:21;-1.30;99.90
64634;DHT22;51043;52.406;9.690;2022-11-20T08:09:48;-1.30;99.90
64634;DHT22;51043;52.406;9.690;2022-11-20T08:12:19;-1.40;99.90
64634;DHT22;51043;52.406;9.690;2022-11-20T08:15:06;-1.30;99.90
64634;DHT22;51043;52.406;9.690;2022-11-20T08:17:37;-1.30;99.90
64634;DHT22;51043;52.406;9.690;2022-11-20T08:20:04;-1.40;99.90
64634;DHT22;51043;52.406;9.690;2022-11-20T08:22:31;-1.30;99.90
64634;DHT22;51043;52.406;9.690;2022-11-20T08:24:58;-1.20;99.90
64634;DHT22;51043;52.406;9.690;2022-11-20T08:27:24;-1.00;99.90
64634;DHT22;51043;52.406;9.690;2022-11-20T08:29:51;-0.90;99.90
64634;DHT22;51043;52.406;9.690;2022-11-20T08:32:18;-1.00;99.90
64634;DHT22;51043;52.406;9.690;2022-11-20T08:34:45;-0.90;99.90
64634;DHT22;51043;52.406;9.690;2022-11-20T08:37:12;-1.00;99.90
64634;DHT22;51043;52.406;9.690;2022-11-20T08:39:39;-0.90;99.90
64634;DHT22;51043;52.406;9.690;2022-11-20T08:42:07;-0.70;99.90
64634;DHT22;51043;52.406;9.690;2022-11-20T08:44:34;-0.50;99.90
64634;DHT22;51043;52.406;9.690;2022-11-20T08:47:01;-0.30;99.90
64634;DHT22;51043;52.406;9.690;2022-11-20T08:49:28;-0.30;99.90
64634;DHT22;51043;52.406;9.690;2022-11-20T08:51:56;-0.30;99.90
64634;DHT22;51043;52.406;9.690;2022-11-20T08:54:23;-0.20;99.90
64634;DHT22;51043;52.406;9.690;2022-11-20T08:56:50;-0.10;99.90
64634;DHT22;51043;52.406;9.690;2022-11-20T08:59:17;0.00;99.90
64634;DHT22;51043;52.406;9.690;2022-11-20T09:01:52;0.10;99.90
64634;DHT22;51043;52.406;9.690;2022-11-20T09:04:19;0.10;99.90
64634;DHT22;51043;52.406;9.690;2022-11-20T09:06:48;0.10;99.90
64634;DHT22;51043;52.406;9.690;2022-11-20T09:09:17;0.20;99.90
64634;DHT22;51043;52.406;9.690;2022-11-20T09:11:48;0.20;99.90
64634;DHT22;51043;52.406;9.690;2022-11-20T09:14:16;0.10;99.90
64634;DHT22;51043;52.406;9.690;2022-11-20T09:16:45;0.00;99.90
64634;DHT22;51043;52.406;9.690;2022-11-20T09:19:12;0.00;99.90
64634;DHT22;51043;52.406;9.690;2022-11-20T09:21:59;0.10;99.90
64634;DHT22;51043;52.406;9.690;2022-11-20T09:24:27;0.30;99.90
64634;DHT22;51043;52.406;9.690;2022-11-20T09:26:55;0.40;99.90
64634;DHT22;51043;52.406;9.690;2022-11-20T09:29:22;0.50;99.90
64634;DHT22;51043;52.406;9.690;2022-11-20T09:31:49;0.80;99.90
64634;DHT22;51043;52.406;9.690;2022-11-20T09:34:16;1.10;99.90
64634;DHT22;51043;52.406;9.690;2022-11-20T09:36:43;1.30;99.90
64634;DHT22;51043;52.406;9.690;2022-11-20T09:39:10;1.60;99.90
64634;DHT22;51043;52.406;9.690;2022-11-20T09:41:49;1.70;99.90
64634;DHT22;51043;52.406;9.690;2022-11-20T09:44:30;1.80;99.90
64634;DHT22;51043;52.406;9.690;2022-11-20T09:47:35;1.90;99.90
64634;DHT22;51043;52.406;9.690;2022-11-20T09:53:11;2.50;99.90
64634;DHT22;51043;52.406;9.690;2022-11-20T09:55:39;2.50;99.90
64634;DHT22;51043;52.406;9.690;2022-11-20T09:58:25;2.60;99.90
64634;DHT22;51043;52.406;9.690;2022-11-20T10:01:03;2.70;99.90
64634;DHT22;51043;52.406;9.690;2022-11-20T10:03:49;2.80;99.90
64634;DHT22;51043;52.406;9.690;2022-11-20T10:06:23;3.00;99.90
64634;DHT22;51043;52.406;9.690;2022-11-20T10:14:52;2.80;99.90
64634;DHT22;51043;52.406;9.690;2022-11-20T10:20:48;2.40;99.90
64634;DHT22;51043;52.406;9.690;2022-11-20T10:31:03;2.20;99.90
64634;DHT22;51043;52.406;9.690;2022-11-20T10:33:34;2.20;99.90
64634;DHT22;51043;52.406;9.690;2022-11-20T10:36:36;2.20;99.90
64634;DHT22;51043;52.406;9.690;2022-11-20T10:39:28;2.00;99.90
64634;DHT22;51043;52.406;9.690;2022-11-20T10:41:58;2.30;99.90
64634;DHT22;51043;52.406;9.690;2022-11-20T10:44:27;2.10;99.90
64634;DHT22;51043;52.406;9.690;2022-11-20T10:47:15;2.00;99.90
64634;DHT22;51043;52.406;9.690;2022-11-20T10:49:46;2.10;99.90
64634;DHT22;51043;52.406;9.690;2022-11-20T10:52:29;2.00;99.90
64634;DHT22;51043;52.406;9.690;2022-11-20T10:57:52;1.90;99.90
64634;DHT22;51043;52.406;9.690;2022-11-20T11:00:21;1.90;99.90
64634;DHT22;51043;52.406;9.690;2022-11-20T11:02:53;1.90;99.90
64634;DHT22;51043;52.406;9.690;2022-11-20T11:05:45;1.90;99.90
64634;DHT22;51043;52.406;9.690;2022-11-20T11:08:17;1.90;99.90
64634;DHT22;51043;52.406;9.690;2022-11-20T11:10:57;1.90;99.90
64634;DHT22;51043;52.406;9.690;2022-11-20T11:13:27;1.80;99.90
64634;DHT22;51043;52.406;9.690;2022-11-20T11:15:56;1.60;99.90
64634;DHT22;51043;52.406;9.690;2022-11-20T11:18:28;1.60;99.90
64634;DHT22;51043;52.406;9.690;2022-11-20T11:20:57;1.50;99.90
64634;DHT22;51043;52.406;9.690;2022-11-20T11:25:59;1.30;99.90
64634;DHT22;51043;52.406;9.690;2022-11-20T11:28:27;1.20;99.90
64634;DHT22;51043;52.406;9.690;2022-11-20T11:30:55;1.10;99.90
64634;DHT22;51043;52.406;9.690;2022-11-20T11:33:29;1.10;99.90
64634;DHT22;51043;52.406;9.690;2022-11-20T11:36:04;1.20;99.90
64634;DHT22;51043;52.406;9.690;2022-11-20T11:38:44;1.30;99.90
64634;DHT22;51043;52.406;9.690;2022-11-20T11:41:21;1.40;99.90
64634;DHT22;51043;52.406;9.690;2022-11-20T11:43:58;1.50;99.90
64634;DHT22;51043;52.406;9.690;2022-11-20T11:46:55;1.50;99.90
64634;DHT22;51043;52.406;9.690;2022-11-20T11:49:23;1.50;99.90
64634;DHT22;51043;52.406;9.690;2022-11-20T11:52:03;1.50;99.90
64634;DHT22;51043;52.406;9.690;2022-11-20T11:54:53;1.60;99.90
64634;DHT22;51043;52.406;9.690;2022-11-20T11:57:33;1.60;99.90
64634;DHT22;51043;52.406;9.690;2022-11-20T12:00:10;1.70;99.90
64634;DHT22;51043;52.406;9.690;2022-11-20T12:05:21;1.90;99.90
64634;DHT22;51043;52.406;9.690;2022-11-20T12:16:09;2.00;99.90
64634;DHT22;51043;52.406;9.690;2022-11-20T12:18:38;2.00;99.90
64634;DHT22;51043;52.406;9.690;2022-11-20T12:21:09;2.10;99.90
64634;DHT22;51043;52.406;9.690;2022-11-20T12:26:58;2.00;99.90
64634;DHT22;51043;52.406;9.690;2022-11-20T12:29:43;1.90;99.90
64634;DHT22;51043;52.406;9.690;2022-11-20T12:35:05;2.00;99.90
64634;DHT22;51043;52.406;9.690;2022-11-20T12:40:42;2.70;99.90
64634;DHT22;51043;52.406;9.690;2022-11-20T12:43:21;2.70;99.90
64634;DHT22;51043;52.406;9.690;2022-11-20T12:46:30;2.70;99.90
64634;DHT22;51043;52.406;9.690;2022-11-20T12:49:18;2.60;99.90
64634;DHT22;51043;52.406;9.690;2022-11-20T12:57:53;2.30;99.90
64634;DHT22;51043;52.406;9.690;2022-11-20T13:00:24;2.40;99.90
64634;DHT22;51043;52.406;9.690;2022-11-20T13:08:45;2.50;99.90
64634;DHT22;51043;52.406;9.690;2022-11-20T13:11:20;2.50;99.90
64634;DHT22;51043;52.406;9.690;2022-11-20T13:14:17;2.50;99.90
64634;DHT22;51043;52.406;9.690;2022-11-20T13:19:31;2.30;99.90
64634;DHT22;51043;52.406;9.690;2022-11-20T13:21:58;2.20;99.90
64634;DHT22;51043;52.406;9.690;2022-11-20T13:24:27;2.20;99.90
64634;DHT22;51043;52.406;9.690;2022-11-20T13:29:43;2.10;99.90
64634;DHT22;51043;52.406;9.690;2022-11-20T13:32:18;2.00;99.90
64634;DHT22;51043;52.406;9.690;2022-11-20T13:35:03;2.00;99.90
64634;DHT22;51043;52.406;9.690;2022-11-20T13:37:32;2.00;99.90
64634;DHT22;51043;52.406;9.690;2022-11-20T13:40:13;2.00;99.90
64634;DHT22;51043;52.406;9.690;2022-11-20T13:42:45;2.00;99.90
64634;DHT22;51043;52.406;9.690;2022-11-20T13:45:27;2.10;99.90
64634;DHT22;51043;52.406;9.690;2022-11-20T13:47:55;2.20;99.90
64634;DHT22;51043;52.406;9.690;2022-11-20T13:50:46;2.20;99.90
64634;DHT22;51043;52.406;9.690;2022-11-20T13:53:37;2.30;99.90
64634;DHT22;51043;52.406;9.690;2022-11-20T13:59:17;2.40;99.90
64634;DHT22;51043;52.406;9.690;2022-11-20T14:01:49;2.20;99.90
64634;DHT22;51043;52.406;9.690;2022-11-20T14:04:23;2.20;99.90
64634;DHT22;51043;52.406;9.690;2022-11-20T14:06:59;2.10;99.90
64634;DHT22;51043;52.406;9.690;2022-11-20T14:09:32;2.10;99.90
64634;DHT22;51043;52.406;9.690;2022-11-20T14:11:59;2.00;99.90
64634;DHT22;51043;52.406;9.690;2022-11-20T14:14:28;2.10;99.90
64634;DHT22;51043;52.406;9.690;2022-11-20T14:19:49;1.90;99.90
64634;DHT22;51043;52.406;9.690;2022-11-20T14:25:00;1.80;99.90
64634;DHT22;51043;52.406;9.690;2022-11-20T14:27:27;1.70;99.90
64634;DHT22;51043;52.406;9.690;2022-11-20T14:30:05;1.70;99.90
64634;DHT22;51043;52.406;9.690;2022-11-20T14:32:35;1.60;99.90
64634;DHT22;51043;52.406;9.690;2022-11-20T14:35:08;1.50;99.90
64634;DHT22;51043;52.406;9.690;2022-11-20T14:37:39;1.50;99.90
64634;DHT22;51043;52.406;9.690;2022-11-20T14:40:29;1.40;99.90
64634;DHT22;51043;52.406;9.690;2022-11-20T14:43:00;1.40;99.90
64634;DHT22;51043;52.406;9.690;2022-11-20T14:45:28;1.40;99.90
64634;DHT22;51043;52.406;9.690;2022-11-20T14:47:57;1.40;99.90
64634;DHT22;51043;52.406;9.690;2022-11-20T14:50:26;1.30;99.90
64634;DHT22;51043;52.406;9.690;2022-11-20T14:52:58;1.30;99.90
64634;DHT22;51043;52.406;9.690;2022-11-20T14:55:36;1.20;99.90
64634;DHT22;51043;52.406;9.690;2022-11-20T14:58:06;1.10;99.90
64634;DHT22;51043;52.406;9.690;2022-11-20T15:00:34;1.10;99.90
64634;DHT22;51043;52.406;9.690;2022-11-20T15:03:15;1.00;99.90
64634;DHT22;51043;52.406;9.690;2022-11-20T15:05:47;0.90;99.90
64634;DHT22;51043;52.406;9.690;2022-11-20T15:08:16;0.80;99.90
64634;DHT22;51043;52.406;9.690;2022-11-20T15:10:48;0.70;99.90
64634;DHT22;51043;52.406;9.690;2022-11-20T15:13:31;0.70;99.90
64634;DHT22;51043;52.406;9.690;2022-11-20T15:16:01;0.90;99.90
64634;DHT22;51043;52.406;9.690;2022-11-20T15:18:36;1.00;99.90
64634;DHT22;51043;52.406;9.690;2022-11-20T15:21:17;0.90;99.90
64634;DHT22;51043;52.406;9.690;2022-11-20T15:23:44;0.90;99.90
64634;DHT22;51043;52.406;9.690;2022-11-20T15:26:13;0.80;99.90
64634;DHT22;51043;52.406;9.690;2022-11-20T15:28:45;0.70;99.90
64634;DHT22;51043;52.406;9.690;2022-11-20T15:31:17;0.70;99.90
64634;DHT22;51043;52.406;9.690;2022-11-20T15:33:45;0.60;99.90
64634;DHT22;51043;52.406;9.690;2022-11-20T15:36:13;0.60;99.90
64634;DHT22;51043;52.406;9.690;2022-11-20T15:38:40;0.50;99.90
64634;DHT22;51043;52.406;9.690;2022-11-20T15:41:08;0.60;99.90
64634;DHT22;51043;52.406;9.690;2022-11-20T15:43:35;0.30;99.90
64634;DHT22;51043;52.406;9.690;2022-11-20T15:46:15;0.20;99.90
64634;DHT22;51043;52.406;9.690;2022-11-20T15:48:44;0.10;99.90
64634;DHT22;51043;52.406;9.690;2022-11-20T15:51:27;-0.10;99.90
64634;DHT22;51043;52.406;9.690;2022-11-20T15:53:55;-0.20;99.90
64634;DHT22;51043;52.406;9.690;2022-11-20T15:56:23;-0.40;99.90
64634;DHT22;51043;52.406;9.690;2022-11-20T15:58:50;-0.50;99.90
64634;DHT22;51043;52.406;9.690;2022-11-20T16:01:19;-0.50;99.90
64634;DHT22;51043;52.406;9.690;2022-11-20T16:03:49;-0.70;99.90
64634;DHT22;51043;52.406;9.690;2022-11-20T16:06:16;-0.70;99.90
64634;DHT22;51043;52.406;9.690;2022-11-20T16:08:43;-0.80;99.90
64634;DHT22;51043;52.406;9.690;2022-11-20T16:11:13;-1.00;99.90
64634;DHT22;51043;52.406;9.690;2022-11-20T16:13:41;-1.20;99.90
64634;DHT22;51043;52.406;9.690;2022-11-20T16:16:33;-1.20;99.90
64634;DHT22;51043;52.406;9.690;2022-11-20T16:19:01;-1.40;99.90
64634;DHT22;51043;52.406;9.690;2022-11-20T16:21:28;-1.50;99.90
64634;DHT22;51043;52.406;9.690;2022-11-20T16:24:00;-1.50;99.90
64634;DHT22;51043;52.406;9.690;2022-11-20T16:26:29;-1.60;99.90
64634;DHT22;51043;52.406;9.690;2022-11-20T16:28:58;-1.70;99.90
64634;DHT22;51043;52.406;9.690;2022-11-20T16:31:27;-1.80;99.90
64634;DHT22;51043;52.406;9.690;2022-11-20T16:33:56;-1.90;99.90
64634;DHT22;51043;52.406;9.690;2022-11-20T16:36:26;-1.90;99.90
64634;DHT22;51043;52.406;9.690;2022-11-20T16:38:56;-1.90;99.90
64634;DHT22;51043;52.406;9.690;2022-11-20T16:41:25;-2.00;99.90
64634;DHT22;51043;52.406;9.690;2022-11-20T16:43:54;-2.00;99.90
64634;DHT22;51043;52.406;9.690;2022-11-20T16:46:26;-2.00;99.90
64634;DHT22;51043;52.406;9.690;2022-11-20T16:51:25;-1.70;99.90
64634;DHT22;51043;52.406;9.690;2022-11-20T16:53:53;-1.80;99.90
64634;DHT22;51043;52.406;9.690;2022-11-20T16:56:25;-1.80;99.90
64634;DHT22;51043;52.406;9.690;2022-11-20T16:58:55;-1.70;99.90
64634;DHT22;51043;52.406;9.690;2022-11-20T17:01:24;-1.70;99.90
64634;DHT22;51043;52.406;9.690;2022-11-20T17:03:55;-1.60;99.90
64634;DHT22;51043;52.406;9.690;2022-11-20T17:06:25;-1.60;99.90
64634;DHT22;51043;52.406;9.690;2022-11-20T17:08:54;-1.60;99.90
64634;DHT22;51043;52.406;9.690;2022-11-20T17:11:21;-1.70;99.90
64634;DHT22;51043;52.406;9.690;2022-11-20T17:13:49;-1.70;99.90
64634;DHT22;51043;52.406;9.690;2022-11-20T17:16:21;-1.70;99.90
64634;DHT22;51043;52.406;9.690;2022-11-20T17:18:49;-1.80;99.90